Time;durP1;ratioP1;P1;durP2;ratioP2;P2;SDS_P1;SDS_P2;PMS_P1;PMS_P2;Temp;Humidity;BMP_temperature;BMP_pressure;BME280_temperature;BME280_humidity;BME280_pressure;Samples;Min_cycle;Max_cycle;Signal;HPM_P1;HPM_P2
2022/09/16 03:50:42;;;;;;;2.57;2.00;;;;;;;;;;6237655;22;20482;-83
2022/09/16 04:31:18;;;;;;;;;;;;;;;;;;;;;
2022/09/16 04:34:42;;;;;;;;;;;;;;;;;;;;;
2022/09/16 04:36:40;;;;;;;7.67;1.50;;;;;;;;;;6248481;22;20443;-85
2022/09/16 04:44:59;;;;;;;3.10;1.30;;;;;;;;;;6243055;22;20476;-83
2022/09/16 04:50:08;;;;;;;1.87;1.77;;;;;;;;;;6235511;22;20495;-83
2022/09/16 04:53:04;;;;;;;2.40;1.90;;;;;;;;;;6227970;22;20457;-86
2022/09/16 04:56:07;;;;;;;1.53;1.53;;;;;;;;;;6243149;23;20524;-85
2022/09/16 04:59:04;;;;;;;1.53;1.43;;;;;;;;;;6214869;23;20459;-86
2022/09/16 05:01:49;;;;;;;3.97;2.20;;;;;;;;;;6235265;23;20887;-86
2022/09/16 05:09:49;;;;;;;2.00;1.60;;;;;;;;;;6238727;22;20462;-83
2022/09/16 05:12:33;;;;;;;6.33;2.30;;;;;;;;;;6242416;23;20472;-85
2022/09/16 05:20:27;;;;;;;2.17;1.70;;;;;;;;;;6233876;22;20539;-80
2022/09/16 05:23:09;;;;;;;3.17;1.87;;;;;;;;;;6219308;22;20541;-86
2022/09/16 05:34:20;;;;;;;2.40;2.20;;;;;;;;;;6266379;22;20973;-78
2022/09/16 05:36:47;;;;;;;3.37;1.60;;;;;;;;;;6270901;22;20463;-78
2022/09/16 05:39:17;;;;;;;4.00;1.70;;;;;;;;;;6268862;22;20430;-80
2022/09/16 05:41:43;;;;;;;2.30;2.00;;;;;;;;;;6271312;22;20916;-79
2022/09/16 05:44:09;;;;;;;2.47;1.80;;;;;;;;;;6267917;22;21049;-78
2022/09/16 05:46:35;;;;;;;3.43;1.73;;;;;;;;;;6270331;22;20847;-77
2022/09/16 05:49:01;;;;;;;7.10;2.70;;;;;;;;;;6268579;22;20388;-76
2022/09/16 05:51:27;;;;;;;2.07;2.07;;;;;;;;;;6242993;22;20401;-78
2022/09/16 05:53:54;;;;;;;1.73;1.50;;;;;;;;;;6268477;22;20608;-77
2022/09/16 05:56:24;;;;;;;2.70;2.43;;;;;;;;;;6243395;22;20403;-77
2022/09/16 05:58:52;;;;;;;3.93;2.30;;;;;;;;;;6270213;22;20432;-77
2022/09/16 06:01:18;;;;;;;2.33;2.13;;;;;;;;;;6266677;22;20880;-77
2022/09/16 06:03:46;;;;;;;2.17;1.97;;;;;;;;;;6270527;22;20437;-78
2022/09/16 06:06:12;;;;;;;2.37;2.20;;;;;;;;;;6246304;22;20479;-78
2022/09/16 06:08:59;;;;;;;3.20;2.30;;;;;;;;;;6271217;22;20705;-80
2022/09/16 06:11:38;;;;;;;4.00;3.33;;;;;;;;;;6245307;22;20787;-77
2022/09/16 06:14:14;;;;;;;2.57;2.37;;;;;;;;;;6271459;22;20940;-78
2022/09/16 06:16:40;;;;;;;2.73;2.60;;;;;;;;;;6272443;22;20523;-79
2022/09/16 06:19:09;;;;;;;3.07;2.87;;;;;;;;;;6270800;22;20711;-79
2022/09/16 06:21:35;;;;;;;3.00;2.90;;;;;;;;;;6272362;22;20452;-78
2022/09/16 06:24:07;;;;;;;4.13;3.83;;;;;;;;;;6267157;22;20502;-78
2022/09/16 06:26:33;;;;;;;2.93;2.70;;;;;;;;;;6241938;22;20385;-79
2022/09/16 06:29:06;;;;;;;4.00;3.00;;;;;;;;;;6245368;22;20450;-80
2022/09/16 06:34:23;;;;;;;6.90;3.60;;;;;;;;;;6270476;22;20447;-80
2022/09/16 06:37:00;;;;;;;4.80;3.43;;;;;;;;;;6272751;22;20459;-80
2022/09/16 06:39:35;;;;;;;3.47;3.20;;;;;;;;;;6273782;22;20387;-79
2022/09/16 06:42:23;;;;;;;;;;;;;;;;;;;;;
2022/09/16 06:48:00;;;;;;;7.50;3.77;;;;;;;;;;6150536;22;20714;-79
2022/09/16 06:50:25;;;;;;;5.00;4.00;;;;;;;;;;6265658;22;20777;-80
2022/09/16 06:52:57;;;;;;;4.80;4.50;;;;;;;;;;6237778;22;20388;-80
2022/09/16 06:56:04;;;;;;;4.97;4.03;;;;;;;;;;6269503;22;20383;-80
2022/09/16 06:59:02;;;;;;;5.57;3.43;;;;;;;;;;6266090;22;20463;-81
2022/09/16 07:04:18;;;;;;;4.10;3.13;;;;;;;;;;6233543;22;20550;-79
2022/09/16 07:06:49;;;;;;;4.30;3.73;;;;;;;;;;6209692;22;20485;-80
2022/09/16 07:09:18;;;;;;;4.97;3.63;;;;;;;;;;6205750;23;20367;-78
2022/09/16 07:11:46;;;;;;;7.33;3.50;;;;;;;;;;6206568;23;20386;-78
2022/09/16 07:14:35;;;;;;;3.10;2.87;;;;;;;;;;6205154;23;20374;-79
2022/09/16 07:17:18;;;;;;;7.63;3.40;;;;;;;;;;6203937;23;20398;-78
2022/09/16 07:19:47;;;;;;;5.53;3.27;;;;;;;;;;6208163;23;20444;-79
2022/09/16 07:22:37;;;;;;;4.60;2.80;;;;;;;;;;6208791;23;20524;-80
2022/09/16 07:25:18;;;;;;;3.50;3.10;;;;;;;;;;6202872;22;20446;-80
2022/09/16 07:28:26;;;;;;;3.90;2.40;;;;;;;;;;6216055;23;20446;-81
2022/09/16 07:30:52;;;;;;;2.40;2.10;;;;;;;;;;6199048;23;20477;-81
2022/09/16 07:33:18;;;;;;;6.90;4.60;;;;;;;;;;6213229;23;20819;-81
2022/09/16 07:35:44;;;;;;;3.27;3.07;;;;;;;;;;6215358;23;20409;-81
2022/09/16 07:38:10;;;;;;;4.07;3.60;;;;;;;;;;6210036;23;20767;-80
2022/09/16 07:40:39;;;;;;;2.77;2.40;;;;;;;;;;6217020;23;20368;-79
2022/09/16 07:43:27;;;;;;;2.93;2.80;;;;;;;;;;6206078;23;20866;-81
2022/09/16 07:46:15;;;;;;;2.30;2.03;;;;;;;;;;6207346;23;20386;-82
2022/09/16 07:48:44;;;;;;;2.93;2.73;;;;;;;;;;6210790;23;20395;-78
2022/09/16 07:51:11;;;;;;;2.13;1.80;;;;;;;;;;6212406;23;20395;-80
2022/09/16 07:53:38;;;;;;;2.13;2.00;;;;;;;;;;6209988;23;20370;-77
2022/09/16 07:56:05;;;;;;;2.10;1.73;;;;;;;;;;6208053;23;20403;-78
2022/09/16 07:58:31;;;;;;;2.53;2.37;;;;;;;;;;6207652;23;20761;-78
2022/09/16 08:00:57;;;;;;;1.90;1.80;;;;;;;;;;6209559;23;20417;-76
2022/09/16 08:03:23;;;;;;;2.47;2.37;;;;;;;;;;6207331;23;20383;-77
2022/09/16 08:24:05;;;;;;;3.43;3.20;;;;;;;;;;6200466;23;20458;-81
2022/09/16 08:27:05;;;;;;;2.90;2.80;;;;;;;;;;6157353;23;20402;-81
2022/09/16 08:29:40;;;;;;;5.50;2.97;;;;;;;;;;6183286;23;20382;-82
2022/09/16 08:32:07;;;;;;;3.10;2.83;;;;;;;;;;6182554;23;20363;-80
2022/09/16 08:37:38;;;;;;;3.27;3.07;;;;;;;;;;6237768;22;20448;-81
2022/09/16 08:45:47;;;;;;;3.50;3.20;;;;;;;;;;6238318;22;20492;-80
2022/09/16 08:48:36;;;;;;;2.83;2.70;;;;;;;;;;6247424;22;20377;-80
2022/09/16 08:51:40;;;;;;;3.10;3.00;;;;;;;;;;6273263;22;20364;-83
2022/09/16 09:00:05;;;;;;;2.80;2.70;;;;;;;;;;6218038;22;20967;-81
2022/09/16 09:05:45;;;;;;;;;;;;;;;;;;;;;
2022/09/16 09:08:43;;;;;;;2.23;2.13;;;;;;;;;;6242625;22;20465;-81
2022/09/16 09:11:28;;;;;;;3.60;3.40;;;;;;;;;;6223915;22;20459;-82
2022/09/16 09:19:25;;;;;;;2.53;2.43;;;;;;;;;;6255954;22;20463;-81
2022/09/16 09:22:31;;;;;;;2.77;1.83;;;;;;;;;;6287659;22;20408;-80
2022/09/16 09:25:26;;;;;;;4.43;1.43;;;;;;;;;;6276864;22;20515;-80
2022/09/16 09:28:04;;;;;;;1.20;1.20;;;;;;;;;;6294482;22;20416;-83
2022/09/16 09:38:36;;;;;;;2.63;1.23;;;;;;;;;;6155061;23;20460;-79
2022/09/16 09:41:18;;;;;;;4.60;1.60;;;;;;;;;;6151713;23;20895;-78
2022/09/16 09:47:40;;;;;;;1.27;1.17;;;;;;;;;;6114865;23;20388;-80
2022/09/16 09:50:35;;;;;;;;;;;;;;;;;;;;;
2022/09/16 09:53:24;;;;;;;1.03;1.00;;;;;;;;;;6127983;23;20874;-80
2022/09/16 09:56:21;;;;;;;1.90;1.00;;;;;;;;;;6105002;23;20397;-79
2022/09/16 09:59:17;;;;;;;1.03;1.03;;;;;;;;;;6074030;23;20531;-80
2022/09/16 10:02:01;;;;;;;1.20;1.13;;;;;;;;;;6001599;23;20375;-79
2022/09/16 10:04:37;;;;;;;2.00;0.93;;;;;;;;;;6029305;23;20470;-79
2022/09/16 10:07:09;;;;;;;1.07;0.90;;;;;;;;;;6029519;23;21009;-79
2022/09/16 10:09:44;;;;;;;0.70;0.70;;;;;;;;;;6027304;23;20400;-79
2022/09/16 10:12:13;;;;;;;1.57;0.70;;;;;;;;;;6071931;23;20388;-79
2022/09/16 10:14:39;;;;;;;1.40;1.30;;;;;;;;;;6096505;23;20401;-78
2022/09/16 10:17:16;;;;;;;2.33;1.10;;;;;;;;;;6121084;23;20400;-79
2022/09/16 10:20:04;;;;;;;2.93;0.80;;;;;;;;;;6094468;23;21348;-80
2022/09/16 10:22:39;;;;;;;1.70;1.30;;;;;;;;;;6091223;23;20381;-79
2022/09/16 10:25:06;;;;;;;3.07;1.30;;;;;;;;;;6119753;23;20427;-78
2022/09/16 10:27:37;;;;;;;2.97;1.00;;;;;;;;;;6097893;23;20740;-78
2022/09/16 10:30:16;;;;;;;1.03;0.90;;;;;;;;;;6095832;23;20458;-79
2022/09/16 10:33:01;;;;;;;1.90;0.80;;;;;;;;;;6126481;23;20361;-79
2022/09/16 10:35:32;;;;;;;1.20;1.10;;;;;;;;;;6096440;23;20393;-79
2022/09/16 10:38:00;;;;;;;1.07;0.70;;;;;;;;;;6122028;23;20459;-79
2022/09/16 10:40:53;;;;;;;1.20;1.10;;;;;;;;;;6095261;23;20739;-79
2022/09/16 10:43:47;;;;;;;2.10;0.80;;;;;;;;;;6122076;23;20404;-79
2022/09/16 10:46:19;;;;;;;6.23;4.23;;;;;;;;;;6093571;23;20421;-80
2022/09/16 10:48:54;;;;;;;1.90;1.20;;;;;;;;;;6095169;23;20413;-78
2022/09/16 10:51:49;;;;;;;0.80;0.80;;;;;;;;;;6098539;23;20360;-78
2022/09/16 10:54:27;;;;;;;0.50;0.50;;;;;;;;;;6111578;23;20403;-78
2022/09/16 10:57:40;;;;;;;1.30;1.10;;;;;;;;;;6096466;23;20396;-80
2022/09/16 11:00:07;;;;;;;0.90;0.90;;;;;;;;;;6185996;22;20441;-79
2022/09/16 11:06:12;;;;;;;1.77;0.90;;;;;;;;;;6214782;23;20468;-78
2022/09/16 11:08:57;;;;;;;1.60;1.10;;;;;;;;;;6240749;23;20411;-77
2022/09/16 11:11:25;;;;;;;2.00;1.20;;;;;;;;;;6242831;23;20773;-79
2022/09/16 11:13:57;;;;;;;3.97;0.93;;;;;;;;;;6211967;23;20409;-80
2022/09/16 11:16:42;;;;;;;2.00;0.70;;;;;;;;;;6215221;23;20710;-79
2022/09/16 11:19:27;;;;;;;1.20;1.20;;;;;;;;;;6237879;23;20459;-78
2022/09/16 11:22:03;;;;;;;4.68;1.63;;;;;;;;;;6237578;23;20873;-81
2022/09/16 11:25:40;;;;;;;1.15;1.10;;;;;;;;;;6237692;23;20389;-81
2022/09/16 11:28:24;;;;;;;3.80;1.20;;;;;;;;;;6230129;23;20441;-80
2022/09/16 11:31:22;;;;;;;3.40;0.90;;;;;;;;;;6213555;23;20923;-78
2022/09/16 11:34:15;;;;;;;1.53;0.77;;;;;;;;;;6223571;23;20454;-78
2022/09/16 11:37:22;;;;;;;2.77;0.83;;;;;;;;;;6250600;23;20354;-83
2022/09/16 11:40:05;;;;;;;1.43;1.33;;;;;;;;;;6247951;23;20390;-79
2022/09/16 11:45:55;;;;;;;1.53;1.30;;;;;;;;;;6145311;23;20417;-80
2022/09/16 11:57:29;;;;;;;2.05;1.40;;;;;;;;;;6251037;23;20384;-82
2022/09/16 12:03:05;;;;;;;2.40;1.00;;;;;;;;;;6266575;22;20457;-82
2022/09/16 12:05:41;;;;;;;2.73;1.20;;;;;;;;;;6282545;22;20400;-82
2022/09/16 12:08:28;;;;;;;1.10;1.00;;;;;;;;;;6284666;22;20828;-82
2022/09/16 12:11:16;;;;;;;2.90;2.67;;;;;;;;;;6254855;22;20381;-83
2022/09/16 12:13:47;;;;;;;1.70;1.60;;;;;;;;;;6288311;22;20383;-82
2022/09/16 12:19:21;;;;;;;1.23;0.83;;;;;;;;;;6243300;22;20456;-86
2022/09/16 12:21:54;;;;;;;0.77;0.63;;;;;;;;;;6259354;23;20469;-80
2022/09/16 12:24:45;;;;;;;0.37;0.37;;;;;;;;;;6262542;22;20400;-84
2022/09/16 12:27:33;;;;;;;0.60;0.60;;;;;;;;;;6257318;23;20399;-86
2022/09/16 13:17:47;;;;;;;2.37;1.30;;;;;;;;;;6199299;23;20454;-82
2022/09/16 13:20:25;;;;;;;1.47;1.33;;;;;;;;;;6141765;23;20422;-81
2022/09/16 13:23:09;;;;;;;1.53;0.97;;;;;;;;;;6173727;23;20410;-84
2022/09/16 13:25:58;;;;;;;0.67;0.67;;;;;;;;;;6197501;23;20363;-83
2022/09/16 13:28:57;;;;;;;1.33;1.13;;;;;;;;;;6170330;23;20434;-80
2022/09/16 13:31:44;;;;;;;0.90;0.90;;;;;;;;;;6078764;23;20474;-82
2022/09/16 13:35:01;;;;;;;2.87;1.07;;;;;;;;;;6125136;23;20387;-84
2022/09/16 13:37:46;;;;;;;2.60;1.13;;;;;;;;;;6190554;23;20514;-83
2022/09/16 13:46:00;;;;;;;2.00;1.90;;;;;;;;;;6270135;22;20447;-83
2022/09/16 13:48:35;;;;;;;1.70;1.60;;;;;;;;;;6284380;22;20396;-84
2022/09/16 13:51:23;;;;;;;3.97;1.30;;;;;;;;;;6251553;22;20383;-84
2022/09/16 13:54:51;;;;;;;1.60;1.40;;;;;;;;;;6271470;22;20415;-83
2022/09/16 14:18:27;;;;;;;1.33;1.20;;;;;;;;;;6256675;22;20229;-81
2022/09/16 14:21:20;;;;;;;2.20;1.10;;;;;;;;;;6292828;22;20396;-83
2022/09/16 14:23:46;;;;;;;1.13;1.13;;;;;;;;;;6245519;22;20445;-84
2022/09/16 14:26:15;;;;;;;1.17;1.07;;;;;;;;;;6231589;23;20393;-83
2022/09/16 14:28:47;;;;;;;2.77;0.90;;;;;;;;;;6231718;23;20394;-83
2022/09/16 14:34:08;;;;;;;0.77;0.77;;;;;;;;;;6172082;23;20394;-79
2022/09/16 14:42:28;;;;;;;;;;;;;;;;;;;;;
2022/09/16 14:50:13;;;;;;;2.20;2.00;;;;;;;;;;6243854;22;20960;-80
2022/09/16 14:52:57;;;;;;;0.83;0.80;;;;;;;;;;6247220;23;20894;-82
2022/09/16 15:03:42;;;;;;;1.10;0.60;;;;;;;;;;6243347;22;20378;-83
2022/09/16 15:07:07;;;;;;;0.73;0.73;;;;;;;;;;6250835;23;20389;-84
2022/09/16 15:09:48;;;;;;;2.77;0.70;;;;;;;;;;6215814;23;20875;-83
2022/09/16 15:15:23;;;;;;;2.47;0.60;;;;;;;;;;6223252;22;20442;-85
2022/09/16 15:18:29;;;;;;;0.77;0.77;;;;;;;;;;6215590;23;20458;-80
2022/09/16 15:21:34;;;;;;;1.90;0.90;;;;;;;;;;6221207;23;20405;-83
2022/09/16 15:24:23;;;;;;;0.77;0.77;;;;;;;;;;6218070;23;20414;-84
2022/09/16 15:27:11;;;;;;;4.37;1.47;;;;;;;;;;6189523;23;20385;-83
2022/09/16 15:29:50;;;;;;;0.80;0.80;;;;;;;;;;6218123;23;20367;-82
2022/09/16 15:32:18;;;;;;;0.77;0.77;;;;;;;;;;6197044;23;20390;-81
2022/09/16 15:35:05;;;;;;;2.13;1.10;;;;;;;;;;6224395;23;20389;-87
2022/09/16 15:38:00;;;;;;;3.33;0.77;;;;;;;;;;6198490;23;20445;-89
2022/09/16 15:43:50;;;;;;;;;;;;;;;;;;;;;
2022/09/16 15:57:32;;;;;;;1.40;1.30;;;;;;;;;;6243366;23;20544;-86
2022/09/16 16:06:38;;;;;;;;;;;;;;;;;;;;;
2022/09/16 16:09:30;;;;;;;2.17;1.30;;;;;;;;;;6241406;23;21216;-80
2022/09/16 16:12:24;;;;;;;1.73;0.70;;;;;;;;;;6239399;23;20385;-81
2022/09/16 16:18:08;;;;;;;0.80;0.80;;;;;;;;;;6240254;23;20482;-79
2022/09/16 16:30:27;;;;;;;2.53;1.53;;;;;;;;;;6074125;23;20409;-77
2022/09/16 16:33:21;;;;;;;5.57;1.00;;;;;;;;;;6231742;23;20412;-83
2022/09/16 16:35:48;;;;;;;1.83;1.13;;;;;;;;;;6208590;23;20399;-83
2022/09/16 16:38:28;;;;;;;1.43;1.00;;;;;;;;;;6216699;23;21095;-82
2022/09/16 16:40:58;;;;;;;1.20;1.10;;;;;;;;;;6235414;23;20397;-84
2022/09/16 16:46:58;;;;;;;1.60;1.23;;;;;;;;;;6198949;23;20726;-83
2022/09/16 16:49:56;;;;;;;2.67;1.17;;;;;;;;;;6255070;22;20389;-85
2022/09/16 16:52:56;;;;;;;1.43;1.33;;;;;;;;;;6271193;22;20345;-84
2022/09/16 16:55:53;;;;;;;1.20;1.10;;;;;;;;;;6241120;22;20764;-82
2022/09/16 16:58:22;;;;;;;2.80;1.50;;;;;;;;;;6196015;22;20456;-83
2022/09/16 17:00:49;;;;;;;1.47;1.07;;;;;;;;;;6239403;22;20847;-81
2022/09/16 17:03:31;;;;;;;2.00;1.10;;;;;;;;;;6237500;22;20465;-83
2022/09/16 17:13:44;;;;;;;5.50;1.40;;;;;;;;;;6206372;23;20437;-81
2022/09/16 17:16:54;;;;;;;1.90;1.10;;;;;;;;;;6179843;23;20421;-83
2022/09/16 17:19:10;;;;;;;3.53;0.97;;;;;;;;;;6192834;23;20545;-82
2022/09/16 17:21:40;;;;;;;1.07;1.00;;;;;;;;;;6181584;23;20402;-83
2022/09/16 17:29:42;;;;;;;1.50;1.40;;;;;;;;;;6183029;23;20458;-85
2022/09/16 17:32:10;;;;;;;3.60;1.33;;;;;;;;;;6206069;23;20736;-82
2022/09/16 17:35:09;;;;;;;2.20;0.73;;;;;;;;;;6180793;23;20501;-83
2022/09/16 17:37:42;;;;;;;0.57;0.50;;;;;;;;;;6089085;23;20441;-82
2022/09/16 17:40:48;;;;;;;;;;;;;;;;;;;;;
2022/09/16 17:46:46;;;;;;;1.60;1.20;;;;;;;;;;6277614;22;20714;-82
2022/09/16 17:49:29;;;;;;;1.27;1.10;;;;;;;;;;6228379;22;20493;-81
2022/09/16 17:51:55;;;;;;;1.93;1.10;;;;;;;;;;6229017;23;20661;-80
2022/09/16 17:54:30;;;;;;;2.93;1.07;;;;;;;;;;6241273;22;20480;-80
2022/09/16 17:57:05;;;;;;;5.03;1.07;;;;;;;;;;6242302;22;20723;-81
2022/09/16 17:59:33;;;;;;;1.70;1.00;;;;;;;;;;6242962;22;21177;-80
2022/09/16 18:02:03;;;;;;;1.77;1.67;;;;;;;;;;6245719;22;20396;-82
2022/09/16 18:07:23;;;;;;;4.43;1.47;;;;;;;;;;6251968;22;20461;-82
2022/09/16 18:18:06;;;;;;;4.37;1.43;;;;;;;;;;6254055;23;20448;-83
2022/09/16 18:20:37;;;;;;;1.30;1.00;;;;;;;;;;6229608;23;20390;-83
2022/09/16 18:23:12;;;;;;;1.90;1.57;;;;;;;;;;6261187;23;20397;-82
2022/09/16 18:25:59;;;;;;;5.20;1.70;;;;;;;;;;6228849;22;20390;-81
2022/09/16 18:28:50;;;;;;;1.37;1.27;;;;;;;;;;6235194;22;20486;-79
2022/09/16 18:31:53;;;;;;;3.97;1.37;;;;;;;;;;6222246;23;20402;-79
2022/09/16 18:34:23;;;;;;;1.60;1.40;;;;;;;;;;6240403;22;20466;-81
2022/09/16 18:37:05;;;;;;;4.47;2.23;;;;;;;;;;6235465;23;20743;-81
2022/09/16 18:39:49;;;;;;;2.97;1.37;;;;;;;;;;6237248;23;20419;-82
2022/09/16 18:42:19;;;;;;;1.80;1.70;;;;;;;;;;6235809;22;20410;-79
2022/09/16 18:45:13;;;;;;;5.40;1.53;;;;;;;;;;6237358;22;20386;-82
2022/09/16 19:04:08;;;;;;;1.73;1.63;;;;;;;;;;6083381;23;20686;-81
2022/09/16 19:09:17;;;;;;;5.00;1.27;;;;;;;;;;6205874;22;20463;-78
2022/09/16 19:11:53;;;;;;;3.80;1.80;;;;;;;;;;6262591;22;20395;-82
2022/09/16 19:14:54;;;;;;;5.27;1.70;;;;;;;;;;6268518;22;20470;-83
2022/09/16 19:17:20;;;;;;;2.43;1.00;;;;;;;;;;6190310;22;20770;-81
2022/09/16 19:19:49;;;;;;;3.47;1.20;;;;;;;;;;6172274;23;20446;-80
2022/09/16 19:22:18;;;;;;;3.23;2.63;;;;;;;;;;6144410;23;20475;-80
2022/09/16 19:24:56;;;;;;;0.60;0.60;;;;;;;;;;6171685;23;20394;-80
2022/09/16 19:30:46;;;;;;;2.57;1.17;;;;;;;;;;6162343;23;20787;-81
2022/09/16 19:33:19;;;;;;;7.73;2.00;;;;;;;;;;6170676;23;20393;-82
2022/09/16 20:39:41;;;;;;;2.33;0.90;;;;;;;;;;6232328;22;20558;-85
2022/09/16 20:42:23;;;;;;;6.83;1.63;;;;;;;;;;6237549;23;20445;-87
2022/09/16 20:45:11;;;;;;;2.00;1.00;;;;;;;;;;6249984;23;20426;-86
2022/09/16 20:47:55;;;;;;;2.17;1.20;;;;;;;;;;6243855;23;20378;-86
2022/09/16 20:51:08;;;;;;;;;;;;;;;;;;;;;
2022/09/16 21:07:07;;;;;;;3.73;1.20;;;;;;;;;;6269709;22;20451;-87
2022/09/16 21:09:39;;;;;;;2.20;1.53;;;;;;;;;;6252901;22;20408;-85
2022/09/16 21:12:26;;;;;;;2.67;1.07;;;;;;;;;;6253544;22;20380;-86
2022/09/16 21:14:57;;;;;;;2.43;1.93;;;;;;;;;;6238478;22;20646;-84
2022/09/16 21:38:17;;;;;;;5.50;1.30;;;;;;;;;;6248287;22;20952;-85
2022/09/16 21:54:31;;;;;;;5.60;1.70;;;;;;;;;;6245667;23;20422;-86
2022/09/16 22:16:53;;;;;;;2.03;1.43;;;;;;;;;;6226184;22;20444;-86
2022/09/16 22:19:19;;;;;;;7.13;2.23;;;;;;;;;;6244882;23;20448;-85
2022/09/16 22:24:52;;;;;;;1.80;1.50;;;;;;;;;;6217172;22;20436;-83
2022/09/16 22:27:28;;;;;;;3.03;1.50;;;;;;;;;;6237964;22;20453;-84
2022/09/16 22:57:50;;;;;;;4.03;1.40;;;;;;;;;;6241858;23;20372;-84
2022/09/16 23:43:49;;;;;;;4.33;1.73;;;;;;;;;;6214217;23;20390;-86
